sensor_id;sensor_type;location;lat;lon;timestamp;pressure;altitude;pressure_sealevel;temperature;humidity
8890;BME280;4481;43.406;24.454;2023-05-14T00:01:51;77283.00;;;-144.09;81.92
8890;BME280;4481;43.406;24.454;2023-05-14T00:04:17;77272.56;;;-144.09;81.01
8890;BME280;4481;43.406;24.454;2023-05-14T00:06:44;77260.00;;;-144.09;80.33
8890;BME280;4481;43.406;24.454;2023-05-14T00:09:10;77249.56;;;-144.09;79.52
8890;BME280;4481;43.406;24.454;2023-05-14T00:11:36;77249.56;;;-144.09;79.60
8890;BME280;4481;43.406;24.454;2023-05-14T00:14:03;77234.94;;;-144.09;80.07
8890;BME280;4481;43.406;24.454;2023-05-14T00:16:29;77247.47;;;-144.09;80.66
8890;BME280;4481;43.406;24.454;2023-05-14T00:18:56;77253.75;;;-144.09;81.61
8890;BME280;4481;43.406;24.454;2023-05-14T00:21:22;77272.56;;;-144.09;82.27
8890;BME280;4481;43.406;24.454;2023-05-14T00:23:48;77270.47;;;-144.09;82.29
8890;BME280;4481;43.406;24.454;2023-05-14T00:26:14;77257.91;;;-144.09;81.56
8890;BME280;4481;43.406;24.454;2023-05-14T00:28:41;77237.03;;;-144.09;81.58
8890;BME280;4481;43.406;24.454;2023-05-14T00:31:07;77222.38;;;-144.09;81.38
8890;BME280;4481;43.406;24.454;2023-05-14T00:33:33;77257.91;;;-144.09;81.54
8890;BME280;4481;43.406;24.454;2023-05-14T00:36:00;77289.28;;;-144.09;83.16
8890;BME280;4481;43.406;24.454;2023-05-14T00:38:26;77278.81;;;-144.09;83.10
8890;BME280;4481;43.406;24.454;2023-05-14T00:40:53;77295.53;;;-144.09;83.96
8890;BME280;4481;43.406;24.454;2023-05-14T00:43:19;77299.72;;;-144.09;84.29
8890;BME280;4481;43.406;24.454;2023-05-14T00:45:46;77308.09;;;-144.09;84.35
8890;BME280;4481;43.406;24.454;2023-05-14T00:48:15;77328.97;;;-144.09;85.29
8890;BME280;4481;43.406;24.454;2023-05-14T00:50:42;77312.25;;;-144.09;84.75
8890;BME280;4481;43.406;24.454;2023-05-14T00:53:08;77310.16;;;-144.09;85.18
8890;BME280;4481;43.406;24.454;2023-05-14T00:55:36;77301.81;;;-144.09;85.12
8890;BME280;4481;43.406;24.454;2023-05-14T00:58:04;77310.16;;;-144.09;85.62
8890;BME280;4481;43.406;24.454;2023-05-14T01:00:32;77318.53;;;-144.09;85.96
8890;BME280;4481;43.406;24.454;2023-05-14T01:02:58;77314.34;;;-144.09;86.44
8890;BME280;4481;43.406;24.454;2023-05-14T01:05:29;77306.00;;;-144.09;85.65
8890;BME280;4481;43.406;24.454;2023-05-14T01:08:03;77308.09;;;-144.09;85.56
8890;BME280;4481;43.406;24.454;2023-05-14T01:10:38;77320.63;;;-144.09;86.37
8890;BME280;4481;43.406;24.454;2023-05-14T01:13:12;77316.44;;;-144.09;86.85
8890;BME280;4481;43.406;24.454;2023-05-14T01:15:38;77303.91;;;-144.09;86.69
8890;BME280;4481;43.406;24.454;2023-05-14T01:18:07;77303.91;;;-144.09;86.53
8890;BME280;4481;43.406;24.454;2023-05-14T01:20:34;77278.81;;;-144.09;85.46
8890;BME280;4481;43.406;24.454;2023-05-14T01:23:01;77283.00;;;-144.09;86.35
8890;BME280;4481;43.406;24.454;2023-05-14T01:25:28;77287.19;;;-144.09;86.90
8890;BME280;4481;43.406;24.454;2023-05-14T01:27:58;77297.63;;;-144.09;87.12
8890;BME280;4481;43.406;24.454;2023-05-14T01:30:29;77310.16;;;-144.09;87.44
8890;BME280;4481;43.406;24.454;2023-05-14T01:32:58;77303.91;;;-144.09;87.24
8890;BME280;4481;43.406;24.454;2023-05-14T01:35:28;77318.53;;;-144.09;87.39
8890;BME280;4481;43.406;24.454;2023-05-14T01:37:56;77306.00;;;-144.09;87.38
8890;BME280;4481;43.406;24.454;2023-05-14T01:40:24;77303.91;;;-144.09;87.81
8890;BME280;4481;43.406;24.454;2023-05-14T01:42:51;77276.72;;;-144.09;86.94
8890;BME280;4481;43.406;24.454;2023-05-14T01:45:19;77262.09;;;-144.09;86.84
8890;BME280;4481;43.406;24.454;2023-05-14T01:47:45;77251.66;;;-144.09;86.49
8890;BME280;4481;43.406;24.454;2023-05-14T01:50:11;77308.09;;;-144.09;87.76
8890;BME280;4481;43.406;24.454;2023-05-14T01:52:37;77335.25;;;-144.09;89.20
8890;BME280;4481;43.406;24.454;2023-05-14T01:55:05;77320.63;;;-144.09;88.57
8890;BME280;4481;43.406;24.454;2023-05-14T01:57:32;77337.34;;;-144.09;89.00
8890;BME280;4481;43.406;24.454;2023-05-14T01:59:58;77328.97;;;-144.09;88.46
8890;BME280;4481;43.406;24.454;2023-05-14T02:02:24;77320.63;;;-144.09;87.99
8890;BME280;4481;43.406;24.454;2023-05-14T02:04:50;77308.09;;;-144.09;87.73
8890;BME280;4481;43.406;24.454;2023-05-14T02:07:16;77314.34;;;-144.09;88.02
8890;BME280;4481;43.406;24.454;2023-05-14T02:09:43;77299.72;;;-144.09;87.49
8890;BME280;4481;43.406;24.454;2023-05-14T02:12:09;77303.91;;;-144.09;87.81
8890;BME280;4481;43.406;24.454;2023-05-14T02:14:37;77287.19;;;-144.09;87.93
8890;BME280;4481;43.406;24.454;2023-05-14T02:17:03;77283.00;;;-144.09;87.84
8890;BME280;4481;43.406;24.454;2023-05-14T02:19:29;77268.38;;;-144.09;87.38
8890;BME280;4481;43.406;24.454;2023-05-14T02:21:55;77276.72;;;-144.09;87.03
8890;BME280;4481;43.406;24.454;2023-05-14T02:24:21;77266.28;;;-144.09;86.15
8890;BME280;4481;43.406;24.454;2023-05-14T02:26:47;77264.19;;;-144.09;85.16
8890;BME280;4481;43.406;24.454;2023-05-14T02:29:14;77262.09;;;-144.09;85.24
8890;BME280;4481;43.406;24.454;2023-05-14T02:31:40;77283.00;;;-144.09;85.74
8890;BME280;4481;43.406;24.454;2023-05-14T02:34:07;77278.81;;;-144.09;86.22
8890;BME280;4481;43.406;24.454;2023-05-14T02:36:33;77278.81;;;-144.09;86.33
8890;BME280;4481;43.406;24.454;2023-05-14T02:38:59;77303.91;;;-144.09;87.01
8890;BME280;4481;43.406;24.454;2023-05-14T02:41:26;77326.88;;;-144.09;88.56
8890;BME280;4481;43.406;24.454;2023-05-14T02:43:52;77310.16;;;-144.09;88.04
8890;BME280;4481;43.406;24.454;2023-05-14T02:46:18;77324.81;;;-144.09;88.60
8890;BME280;4481;43.406;24.454;2023-05-14T02:48:45;77303.91;;;-144.09;88.06
8890;BME280;4481;43.406;24.454;2023-05-14T02:51:11;77299.72;;;-144.09;87.61
8890;BME280;4481;43.406;24.454;2023-05-14T02:53:37;77287.19;;;-144.09;86.66
8890;BME280;4481;43.406;24.454;2023-05-14T02:56:04;77285.09;;;-144.09;86.73
8890;BME280;4481;43.406;24.454;2023-05-14T02:58:30;77287.19;;;-144.09;86.80
8890;BME280;4481;43.406;24.454;2023-05-14T03:00:56;77301.81;;;-144.09;87.44
8890;BME280;4481;43.406;24.454;2023-05-14T03:03:22;77293.44;;;-144.09;87.90
8890;BME280;4481;43.406;24.454;2023-05-14T03:05:49;77280.91;;;-144.09;88.11
8890;BME280;4481;43.406;24.454;2023-05-14T03:08:16;77278.81;;;-144.09;88.36
8890;BME280;4481;43.406;24.454;2023-05-14T03:10:42;77306.00;;;-144.09;88.91
8890;BME280;4481;43.406;24.454;2023-05-14T03:13:08;77314.34;;;-144.09;89.48
8890;BME280;4481;43.406;24.454;2023-05-14T03:15:34;77297.63;;;-144.09;89.12
8890;BME280;4481;43.406;24.454;2023-05-14T03:18:01;77287.19;;;-144.09;88.60
8890;BME280;4481;43.406;24.454;2023-05-14T03:20:27;77306.00;;;-144.09;89.15
8890;BME280;4481;43.406;24.454;2023-05-14T03:22:54;77316.44;;;-144.09;90.02
8890;BME280;4481;43.406;24.454;2023-05-14T03:25:20;77308.09;;;-144.09;90.13
8890;BME280;4481;43.406;24.454;2023-05-14T03:27:46;77306.00;;;-144.09;89.79
8890;BME280;4481;43.406;24.454;2023-05-14T03:30:13;77328.97;;;-144.09;90.64
8890;BME280;4481;43.406;24.454;2023-05-14T03:32:39;77308.09;;;-144.09;90.15
8890;BME280;4481;43.406;24.454;2023-05-14T03:35:06;77289.28;;;-144.09;89.44
8890;BME280;4481;43.406;24.454;2023-05-14T03:37:32;77278.81;;;-144.09;88.78
8890;BME280;4481;43.406;24.454;2023-05-14T03:39:59;77272.56;;;-144.09;88.62
8890;BME280;4481;43.406;24.454;2023-05-14T03:42:25;77268.38;;;-144.09;88.12
8890;BME280;4481;43.406;24.454;2023-05-14T03:44:52;77272.56;;;-144.09;88.01
8890;BME280;4481;43.406;24.454;2023-05-14T03:47:18;77285.09;;;-144.09;88.54
8890;BME280;4481;43.406;24.454;2023-05-14T03:49:44;77272.56;;;-144.09;87.98
8890;BME280;4481;43.406;24.454;2023-05-14T03:52:10;77260.00;;;-144.09;87.68
8890;BME280;4481;43.406;24.454;2023-05-14T03:54:36;77245.38;;;-144.09;87.49
8890;BME280;4481;43.406;24.454;2023-05-14T03:57:04;77251.66;;;-144.09;87.58
8890;BME280;4481;43.406;24.454;2023-05-14T03:59:30;77243.28;;;-144.09;87.21
8890;BME280;4481;43.406;24.454;2023-05-14T04:01:56;77251.66;;;-144.09;87.46
8890;BME280;4481;43.406;24.454;2023-05-14T04:04:22;77239.13;;;-144.09;87.45
8890;BME280;4481;43.406;24.454;2023-05-14T04:06:48;77226.56;;;-144.09;87.34
8890;BME280;4481;43.406;24.454;2023-05-14T04:09:14;77220.31;;;-144.09;86.73
8890;BME280;4481;43.406;24.454;2023-05-14T04:11:41;77216.13;;;-144.09;86.94
8890;BME280;4481;43.406;24.454;2023-05-14T04:14:07;77203.59;;;-144.09;86.51
8890;BME280;4481;43.406;24.454;2023-05-14T04:16:33;77193.13;;;-144.09;86.19
8890;BME280;4481;43.406;24.454;2023-05-14T04:19:01;77191.03;;;-144.09;86.26
8890;BME280;4481;43.406;24.454;2023-05-14T04:21:28;77176.41;;;-144.09;85.84
8890;BME280;4481;43.406;24.454;2023-05-14T04:23:54;77157.59;;;-144.09;85.33
8890;BME280;4481;43.406;24.454;2023-05-14T04:26:20;77170.16;;;-144.09;85.36
8890;BME280;4481;43.406;24.454;2023-05-14T04:28:46;77159.69;;;-144.09;84.60
8890;BME280;4481;43.406;24.454;2023-05-14T04:31:14;77197.31;;;-144.09;86.02
8890;BME280;4481;43.406;24.454;2023-05-14T04:33:40;77180.59;;;-144.09;86.20
8890;BME280;4481;43.406;24.454;2023-05-14T04:36:07;77191.03;;;-144.09;85.79
8890;BME280;4481;43.406;24.454;2023-05-14T04:38:33;77170.16;;;-144.09;85.80
8890;BME280;4481;43.406;24.454;2023-05-14T04:40:59;77165.97;;;-144.09;85.06
8890;BME280;4481;43.406;24.454;2023-05-14T04:43:25;77161.78;;;-144.09;84.88
8890;BME280;4481;43.406;24.454;2023-05-14T04:45:51;77172.22;;;-144.09;84.84
8890;BME280;4481;43.406;24.454;2023-05-14T04:48:18;77249.56;;;-144.09;87.58
8890;BME280;4481;43.406;24.454;2023-05-14T04:50:44;77245.38;;;-144.09;87.36
8890;BME280;4481;43.406;24.454;2023-05-14T04:53:10;77209.84;;;-144.09;86.98
8890;BME280;4481;43.406;24.454;2023-05-14T04:55:36;77232.84;;;-144.09;87.12
8890;BME280;4481;43.406;24.454;2023-05-14T04:58:03;77245.38;;;-144.09;88.24
8890;BME280;4481;43.406;24.454;2023-05-14T05:00:29;77203.59;;;-144.09;87.04
8890;BME280;4481;43.406;24.454;2023-05-14T05:02:56;77220.31;;;-144.09;87.66
8890;BME280;4481;43.406;24.454;2023-05-14T05:05:23;77214.03;;;-144.09;87.89
8890;BME280;4481;43.406;24.454;2023-05-14T05:07:49;77195.22;;;-144.09;87.83
8890;BME280;4481;43.406;24.454;2023-05-14T05:10:15;77176.41;;;-144.09;87.82
8890;BME280;4481;43.406;24.454;2023-05-14T05:12:41;77176.41;;;-144.09;88.06
8890;BME280;4481;43.406;24.454;2023-05-14T05:15:08;77188.94;;;-144.09;88.36
8890;BME280;4481;43.406;24.454;2023-05-14T05:17:34;77178.50;;;-144.09;88.44
8890;BME280;4481;43.406;24.454;2023-05-14T05:20:01;77147.16;;;-144.09;86.20
8890;BME280;4481;43.406;24.454;2023-05-14T05:22:29;77119.97;;;-144.09;84.52
8890;BME280;4481;43.406;24.454;2023-05-14T05:24:56;77111.63;;;-144.09;84.26
8890;BME280;4481;43.406;24.454;2023-05-14T05:27:24;77128.34;;;-144.09;84.00
8890;BME280;4481;43.406;24.454;2023-05-14T05:29:50;77117.91;;;-144.09;83.82
8890;BME280;4481;43.406;24.454;2023-05-14T05:32:16;77147.16;;;-144.09;84.28
8890;BME280;4481;43.406;24.454;2023-05-14T05:34:42;77119.97;;;-144.09;82.85
8890;BME280;4481;43.406;24.454;2023-05-14T05:37:09;77103.25;;;-144.09;82.57
8890;BME280;4481;43.406;24.454;2023-05-14T05:39:37;77090.72;;;-144.09;81.58
8890;BME280;4481;43.406;24.454;2023-05-14T05:42:05;77063.56;;;-144.09;82.15
8890;BME280;4481;43.406;24.454;2023-05-14T05:44:31;77061.47;;;-144.09;81.87
8890;BME280;4481;43.406;24.454;2023-05-14T05:46:57;77061.47;;;-144.09;82.05
8890;BME280;4481;43.406;24.454;2023-05-14T05:49:23;77080.28;;;-144.09;82.22
8890;BME280;4481;43.406;24.454;2023-05-14T05:51:49;77101.19;;;-144.09;82.78
8890;BME280;4481;43.406;24.454;2023-05-14T05:54:15;77092.81;;;-144.09;83.13
8890;BME280;4481;43.406;24.454;2023-05-14T05:56:42;77094.91;;;-144.09;82.52
8890;BME280;4481;43.406;24.454;2023-05-14T05:59:08;77084.47;;;-144.09;82.27
8890;BME280;4481;43.406;24.454;2023-05-14T06:01:34;77065.66;;;-144.09;82.72
8890;BME280;4481;43.406;24.454;2023-05-14T06:04:01;77055.19;;;-144.09;82.70
8890;BME280;4481;43.406;24.454;2023-05-14T06:06:28;77055.19;;;-144.09;79.90
8890;BME280;4481;43.406;24.454;2023-05-14T06:08:57;77021.75;;;-144.09;78.86
8890;BME280;4481;43.406;24.454;2023-05-14T06:11:23;77057.28;;;-144.09;79.07
8890;BME280;4481;43.406;24.454;2023-05-14T06:13:50;77044.75;;;-144.09;79.27
8890;BME280;4481;43.406;24.454;2023-05-14T06:16:16;77028.03;;;-144.09;79.17
8890;BME280;4481;43.406;24.454;2023-05-14T06:18:42;77017.59;;;-144.09;79.40
8890;BME280;4481;43.406;24.454;2023-05-14T06:21:08;77013.41;;;-144.09;79.45
8890;BME280;4481;43.406;24.454;2023-05-14T06:23:34;76982.06;;;-144.09;77.18
8890;BME280;4481;43.406;24.454;2023-05-14T06:26:00;76959.06;;;-144.09;76.60
8890;BME280;4481;43.406;24.454;2023-05-14T06:28:26;76936.06;;;-144.09;76.00
8890;BME280;4481;43.406;24.454;2023-05-14T06:30:53;76942.34;;;-144.09;76.25
8890;BME280;4481;43.406;24.454;2023-05-14T06:33:20;76946.53;;;-144.09;77.12
8890;BME280;4481;43.406;24.454;2023-05-14T06:35:54;76921.44;;;-144.09;78.08
8890;BME280;4481;43.406;24.454;2023-05-14T06:38:20;76921.44;;;-144.09;77.98
8890;BME280;4481;43.406;24.454;2023-05-14T06:40:46;76911.00;;;-144.09;75.09
8890;BME280;4481;43.406;24.454;2023-05-14T06:43:12;76896.38;;;-144.09;75.04
8890;BME280;4481;43.406;24.454;2023-05-14T06:45:38;76896.38;;;-144.09;75.14
8890;BME280;4481;43.406;24.454;2023-05-14T06:48:05;76894.28;;;-144.09;74.48
8890;BME280;4481;43.406;24.454;2023-05-14T06:50:31;76919.34;;;-144.09;76.13
8890;BME280;4481;43.406;24.454;2023-05-14T06:52:57;76921.44;;;-144.09;76.36
8890;BME280;4481;43.406;24.454;2023-05-14T06:55:23;76925.63;;;-144.09;75.64
8890;BME280;4481;43.406;24.454;2023-05-14T06:57:49;76902.63;;;-144.09;76.78
8890;BME280;4481;43.406;24.454;2023-05-14T07:00:16;76888.00;;;-144.09;75.75
8890;BME280;4481;43.406;24.454;2023-05-14T07:02:43;76862.94;;;-144.09;73.29
8890;BME280;4481;43.406;24.454;2023-05-14T07:05:09;76842.03;;;-144.09;71.40
8890;BME280;4481;43.406;24.454;2023-05-14T07:07:36;76804.44;;;-144.09;69.66
8890;BME280;4481;43.406;24.454;2023-05-14T07:10:02;76775.16;;;-144.09;67.70
8890;BME280;4481;43.406;24.454;2023-05-14T07:12:29;76787.72;;;-144.09;69.07
8890;BME280;4481;43.406;24.454;2023-05-14T07:14:55;76783.53;;;-144.09;70.77
8890;BME280;4481;43.406;24.454;2023-05-14T07:17:22;76771.00;;;-144.09;70.12
8890;BME280;4481;43.406;24.454;2023-05-14T07:19:48;76768.91;;;-144.09;67.84
8890;BME280;4481;43.406;24.454;2023-05-14T07:22:14;76741.72;;;-144.09;67.01
8890;BME280;4481;43.406;24.454;2023-05-14T07:24:41;76758.44;;;-144.09;69.45
8890;BME280;4481;43.406;24.454;2023-05-14T07:27:07;76773.06;;;-144.09;69.64
8890;BME280;4481;43.406;24.454;2023-05-14T07:29:33;76787.72;;;-144.09;69.37
8890;BME280;4481;43.406;24.454;2023-05-14T07:31:59;76764.72;;;-144.09;66.64
8890;BME280;4481;43.406;24.454;2023-05-14T07:34:25;76781.44;;;-144.09;66.96
8890;BME280;4481;43.406;24.454;2023-05-14T07:36:52;76791.88;;;-144.09;66.86
8890;BME280;4481;43.406;24.454;2023-05-14T07:39:19;76787.72;;;-144.09;67.73
8890;BME280;4481;43.406;24.454;2023-05-14T07:41:45;76766.81;;;-144.09;68.04
8890;BME280;4481;43.406;24.454;2023-05-14T07:44:11;76756.34;;;-144.09;69.19
8890;BME280;4481;43.406;24.454;2023-05-14T07:46:37;76748.00;;;-144.09;67.22
8890;BME280;4481;43.406;24.454;2023-05-14T07:49:03;76756.34;;;-144.09;68.35
8890;BME280;4481;43.406;24.454;2023-05-14T07:51:29;76775.16;;;-144.09;70.36
8890;BME280;4481;43.406;24.454;2023-05-14T07:53:56;76771.00;;;-144.09;67.64
8890;BME280;4481;43.406;24.454;2023-05-14T07:56:22;76762.63;;;-144.09;67.93
8890;BME280;4481;43.406;24.454;2023-05-14T07:58:49;76748.00;;;-144.09;68.97
8890;BME280;4481;43.406;24.454;2023-05-14T08:01:15;76745.91;;;-144.09;67.73
8890;BME280;4481;43.406;24.454;2023-05-14T08:03:41;76737.56;;;-144.09;68.28
8890;BME280;4481;43.406;24.454;2023-05-14T08:06:07;76766.81;;;-144.09;68.49
8890;BME280;4481;43.406;24.454;2023-05-14T08:08:33;76775.16;;;-144.09;69.46
8890;BME280;4481;43.406;24.454;2023-05-14T08:10:59;76775.16;;;-144.09;70.00
8890;BME280;4481;43.406;24.454;2023-05-14T08:13:26;76785.63;;;-144.09;71.56
8890;BME280;4481;43.406;24.454;2023-05-14T08:15:52;76787.72;;;-144.09;71.68
8890;BME280;4481;43.406;24.454;2023-05-14T08:18:18;76787.72;;;-144.09;71.96
8890;BME280;4481;43.406;24.454;2023-05-14T08:20:44;76844.13;;;-144.09;75.46
8890;BME280;4481;43.406;24.454;2023-05-14T08:23:11;76925.63;;;-144.09;80.90
8890;BME280;4481;43.406;24.454;2023-05-14T08:25:37;76911.00;;;-144.09;80.84
8890;BME280;4481;43.406;24.454;2023-05-14T08:28:04;76890.09;;;-144.09;80.20
8890;BME280;4481;43.406;24.454;2023-05-14T08:30:30;76842.03;;;-144.09;77.56
8890;BME280;4481;43.406;24.454;2023-05-14T08:32:57;76823.22;;;-144.09;76.46
8890;BME280;4481;43.406;24.454;2023-05-14T08:35:23;76885.91;;;-144.09;77.57
8890;BME280;4481;43.406;24.454;2023-05-14T08:37:49;76888.00;;;-144.09;78.36
8890;BME280;4481;43.406;24.454;2023-05-14T08:40:17;76900.56;;;-144.09;77.53
8890;BME280;4481;43.406;24.454;2023-05-14T08:42:43;76839.94;;;-144.09;76.78
8890;BME280;4481;43.406;24.454;2023-05-14T08:45:16;76819.06;;;-144.09;76.70
8890;BME280;4481;43.406;24.454;2023-05-14T08:47:46;76773.06;;;-144.09;75.66
8890;BME280;4481;43.406;24.454;2023-05-14T08:50:13;76764.72;;;-144.09;74.86
8890;BME280;4481;43.406;24.454;2023-05-14T08:52:39;76779.34;;;-144.09;75.67
8890;BME280;4481;43.406;24.454;2023-05-14T08:55:06;76787.72;;;-144.09;77.46
8890;BME280;4481;43.406;24.454;2023-05-14T08:57:33;76766.81;;;-144.09;77.28
8890;BME280;4481;43.406;24.454;2023-05-14T09:00:00;76760.53;;;-144.09;76.42
8890;BME280;4481;43.406;24.454;2023-05-14T09:02:28;76783.53;;;-144.09;78.89
8890;BME280;4481;43.406;24.454;2023-05-14T09:04:56;76791.88;;;-144.09;79.70
8890;BME280;4481;43.406;24.454;2023-05-14T09:07:22;76785.63;;;-144.09;78.98
8890;BME280;4481;43.406;24.454;2023-05-14T09:09:49;76768.91;;;-144.09;80.60
8890;BME280;4481;43.406;24.454;2023-05-14T09:12:15;76779.34;;;-144.09;79.92
8890;BME280;4481;43.406;24.454;2023-05-14T09:14:42;76852.47;;;-144.09;78.17
8890;BME280;4481;43.406;24.454;2023-05-14T09:17:09;76852.47;;;-144.09;79.06
8890;BME280;4481;43.406;24.454;2023-05-14T09:19:38;76808.59;;;-144.09;78.37
8890;BME280;4481;43.406;24.454;2023-05-14T09:22:07;76781.44;;;-144.09;78.29
8890;BME280;4481;43.406;24.454;2023-05-14T09:24:34;76775.16;;;-144.09;78.89
8890;BME280;4481;43.406;24.454;2023-05-14T09:27:01;76745.91;;;-144.09;78.82
8890;BME280;4481;43.406;24.454;2023-05-14T09:29:28;76725.00;;;-144.09;79.43
8890;BME280;4481;43.406;24.454;2023-05-14T09:31:54;76760.53;;;-144.09;80.48
8890;BME280;4481;43.406;24.454;2023-05-14T09:34:24;76827.41;;;-144.09;81.17
8890;BME280;4481;43.406;24.454;2023-05-14T09:36:55;76904.72;;;-144.09;82.75
8890;BME280;4481;43.406;24.454;2023-05-14T09:39:22;76902.63;;;-144.09;83.44
8890;BME280;4481;43.406;24.454;2023-05-14T09:41:48;76835.78;;;-144.09;82.49
8890;BME280;4481;43.406;24.454;2023-05-14T09:44:16;76771.00;;;-144.09;81.14
8890;BME280;4481;43.406;24.454;2023-05-14T09:46:42;76821.13;;;-144.09;82.68
8890;BME280;4481;43.406;24.454;2023-05-14T09:49:08;76787.72;;;-144.09;80.95
8890;BME280;4481;43.406;24.454;2023-05-14T09:51:36;76781.44;;;-144.09;81.02
8890;BME280;4481;43.406;24.454;2023-05-14T09:54:03;76727.09;;;-144.09;80.08
8890;BME280;4481;43.406;24.454;2023-05-14T09:56:31;76775.16;;;-144.09;80.97
8890;BME280;4481;43.406;24.454;2023-05-14T09:58:57;76748.00;;;-144.09;81.24
8890;BME280;4481;43.406;24.454;2023-05-14T10:01:24;76676.94;;;-144.09;80.24
8890;BME280;4481;43.406;24.454;2023-05-14T10:03:51;76699.94;;;-144.09;79.64
8890;BME280;4481;43.406;24.454;2023-05-14T10:06:21;76687.41;;;-144.09;77.93
8890;BME280;4481;43.406;24.454;2023-05-14T10:08:53;76689.50;;;-144.09;77.41
8890;BME280;4481;43.406;24.454;2023-05-14T10:11:24;76633.06;;;-144.09;77.84
8890;BME280;4481;43.406;24.454;2023-05-14T10:13:56;76589.19;;;-144.09;75.71
8890;BME280;4481;43.406;24.454;2023-05-14T10:16:27;76589.19;;;-144.09;75.69
8890;BME280;4481;43.406;24.454;2023-05-14T10:18:56;76555.75;;;-144.09;71.81
8890;BME280;4481;43.406;24.454;2023-05-14T10:21:27;76509.78;;;-144.09;72.44
8890;BME280;4481;43.406;24.454;2023-05-14T10:23:54;76528.59;;;-144.09;73.02
8890;BME280;4481;43.406;24.454;2023-05-14T10:26:21;76472.19;;;-144.09;71.96
8890;BME280;4481;43.406;24.454;2023-05-14T10:28:47;76409.50;;;-144.09;72.22
8890;BME280;4481;43.406;24.454;2023-05-14T10:31:14;76399.03;;;-144.09;71.39
8890;BME280;4481;43.406;24.454;2023-05-14T10:33:46;76403.22;;;-144.09;70.29
8890;BME280;4481;43.406;24.454;2023-05-14T10:36:15;76357.25;;;-144.09;70.55
8890;BME280;4481;43.406;24.454;2023-05-14T10:38:42;76323.81;;;-144.09;68.86
8890;BME280;4481;43.406;24.454;2023-05-14T10:41:10;76342.63;;;-144.09;66.87
8890;BME280;4481;43.406;24.454;2023-05-14T10:43:37;76407.41;;;-144.09;68.10
8890;BME280;4481;43.406;24.454;2023-05-14T10:46:04;76361.44;;;-144.09;68.26
8890;BME280;4481;43.406;24.454;2023-05-14T10:48:32;76511.88;;;-144.09;70.54
8890;BME280;4481;43.406;24.454;2023-05-14T10:50:59;76513.97;;;-144.09;72.36
8890;BME280;4481;43.406;24.454;2023-05-14T10:53:33;76455.47;;;-144.09;70.79
8890;BME280;4481;43.406;24.454;2023-05-14T10:56:02;76449.19;;;-144.09;69.39
8890;BME280;4481;43.406;24.454;2023-05-14T10:58:30;76430.38;;;-144.09;68.60
8890;BME280;4481;43.406;24.454;2023-05-14T11:00:58;76405.31;;;-144.09;70.04
8890;BME280;4481;43.406;24.454;2023-05-14T11:03:28;76394.88;;;-144.09;66.29
8890;BME280;4481;43.406;24.454;2023-05-14T11:05:55;76353.06;;;-144.09;65.21
8890;BME280;4481;43.406;24.454;2023-05-14T11:08:21;76376.06;;;-144.09;64.00
8890;BME280;4481;43.406;24.454;2023-05-14T11:10:48;76403.22;;;-144.09;64.91
8890;BME280;4481;43.406;24.454;2023-05-14T11:13:14;76328.00;;;-144.09;64.48
8890;BME280;4481;43.406;24.454;2023-05-14T11:15:42;76317.56;;;-144.09;63.89
8890;BME280;4481;43.406;24.454;2023-05-14T11:18:11;76369.78;;;-144.09;64.79
8890;BME280;4481;43.406;24.454;2023-05-14T11:20:37;76302.94;;;-144.09;65.29
8890;BME280;4481;43.406;24.454;2023-05-14T11:23:04;76246.50;;;-144.09;63.96
8890;BME280;4481;43.406;24.454;2023-05-14T11:25:30;76342.63;;;-144.09;62.46
8890;BME280;4481;43.406;24.454;2023-05-14T11:27:57;76359.34;;;-144.09;64.44
8890;BME280;4481;43.406;24.454;2023-05-14T11:30:25;76284.13;;;-144.09;63.92
8890;BME280;4481;43.406;24.454;2023-05-14T11:32:51;76313.38;;;-144.09;63.23
8890;BME280;4481;43.406;24.454;2023-05-14T11:35:18;76313.38;;;-144.09;65.21
8890;BME280;4481;43.406;24.454;2023-05-14T11:37:49;76309.19;;;-144.09;65.37
8890;BME280;4481;43.406;24.454;2023-05-14T11:40:17;76330.09;;;-144.09;65.76
8890;BME280;4481;43.406;24.454;2023-05-14T11:42:43;76288.31;;;-144.09;65.49
8890;BME280;4481;43.406;24.454;2023-05-14T11:45:10;76240.25;;;-144.09;65.77
8890;BME280;4481;43.406;24.454;2023-05-14T11:47:37;76265.31;;;-144.09;64.63
8890;BME280;4481;43.406;24.454;2023-05-14T11:50:04;76288.31;;;-144.09;65.82
8890;BME280;4481;43.406;24.454;2023-05-14T11:52:30;76240.25;;;-144.09;65.75
8890;BME280;4481;43.406;24.454;2023-05-14T11:55:01;76196.38;;;-144.09;64.28
8890;BME280;4481;43.406;24.454;2023-05-14T11:57:30;76284.13;;;-144.09;67.06
8890;BME280;4481;43.406;24.454;2023-05-14T11:59:56;76302.94;;;-144.09;67.75
8890;BME280;4481;43.406;24.454;2023-05-14T12:02:22;76325.91;;;-144.09;68.87
8890;BME280;4481;43.406;24.454;2023-05-14T12:04:52;76229.81;;;-144.09;67.46
8890;BME280;4481;43.406;24.454;2023-05-14T12:07:18;76135.78;;;-144.09;66.17
8890;BME280;4481;43.406;24.454;2023-05-14T12:09:46;76144.13;;;-144.09;65.54
8890;BME280;4481;43.406;24.454;2023-05-14T12:12:15;76114.88;;;-144.09;66.30
8890;BME280;4481;43.406;24.454;2023-05-14T12:14:43;76087.72;;;-144.09;66.19
8890;BME280;4481;43.406;24.454;2023-05-14T12:17:14;75993.72;;;-144.09;65.82
8890;BME280;4481;43.406;24.454;2023-05-14T12:19:42;75951.94;;;-144.09;63.41
8890;BME280;4481;43.406;24.454;2023-05-14T12:22:09;75972.81;;;-144.09;62.39
8890;BME280;4481;43.406;24.454;2023-05-14T12:24:35;75956.09;;;-144.09;63.17
8890;BME280;4481;43.406;24.454;2023-05-14T12:27:02;75943.56;;;-144.09;63.96
8890;BME280;4481;43.406;24.454;2023-05-14T12:29:28;75947.75;;;-144.09;63.56
8890;BME280;4481;43.406;24.454;2023-05-14T12:31:56;75931.03;;;-144.09;63.43
8890;BME280;4481;43.406;24.454;2023-05-14T12:34:23;75968.63;;;-144.09;64.09
8890;BME280;4481;43.406;24.454;2023-05-14T12:36:49;75999.97;;;-144.09;65.40
8890;BME280;4481;43.406;24.454;2023-05-14T12:39:16;75924.78;;;-144.09;64.35
8890;BME280;4481;43.406;24.454;2023-05-14T12:41:42;75891.34;;;-144.09;64.64
8890;BME280;4481;43.406;24.454;2023-05-14T12:44:08;75862.09;;;-144.09;64.00
8890;BME280;4481;43.406;24.454;2023-05-14T12:46:34;75855.81;;;-144.09;63.36
8890;BME280;4481;43.406;24.454;2023-05-14T12:49:01;75891.34;;;-144.09;64.39